To NAV CANADA Home Page Login to a new session Search on AWWS site Feedback and Comments Disclaimer Vers la page française équivalente Tips FAQ What's new on the site To the Forecasts and Observations / NOTAM section To "File a Flight Plan" website Publications and other links Update of the User's profile FIC Telephone Numbers My Weather Data Folder Route Weather Data Regional Weather Data Local Weather Data To the Forecasts and Observations / NOTAM section
Request Generated 06/26/2017 at 03:45:28 UTC . Weather information available at that time is displayed.

METAR/TAF

MONCTON/GREATER MONCTON ROMEO LEBLANC INTL/NB    

METAR CYQM 260300Z 16005KT 15SM FEW030 14/12 A2981 RMK SC1 SC TR
SLP095 DENSITY ALT 400FT=
METAR CYQM 260200Z 20006KT 15SM FEW030 18/13 A2981 RMK SC1 SC TR
SLP096 DENSITY ALT 800FT=
METAR CYQM 260100Z 20007KT 15SM FEW020 FEW030 19/13 A2980 RMK CU1SC1
CU TR SC TR SLP094 DENSITY ALT 900FT=

TAF CYQM 252338Z 2600/2624 23010KT P6SM FEW060 TEMPO 2600/2606 BKN060
FM260600 20007KT P6SM -SHRA BKN050
FM260900 22010G20KT P6SM SCT012 TEMPO 2609/2611 BKN012
FM261200 25010G20KT P6SM BKN080
BECMG 2619/2621 23012KT
FM262100 23012KT P6SM -SHRA BKN030
RMK NXT FCST BY 260600Z=
Your time UTC time
Weather data provided by Environment Canada and NAV CANADA